Aérodrome :
LOGIN :

S'inscrire | Disclaimer

   EN    FR    IT 

 










Légende :    VFR   VFR Marginal   IFR   IFR Intensif   IFR Très Intensif
Visi : 
Plafond : 
>= 8 km
>= 3000ft
5 à 8 km
1000 à 3000 ft
1500m à 5 km
500 à 1000 ft
800 à 1500m
200 à 500 ft
< 800m
< 200 ft
Symboles :   Orages  Brouillard  Fortes neiges  Fortes précipitations  Vent > 20 kt
SIGMETs :   Divers  Orages  Givrage  Turbulence  Onde Orograph.  Cendres Volcan.







- Altitude de l'aérodrome : 106 ft
- Code IATA : XDA
- Voir les cartes d'approche


LFBY - Dax Seyresse

DERNIER METAR :
  • 222200Z AUTO 28006KT 250V330 6000 // BKN016 OVC027 21/18 Q1021

METARs EXPIRÉS :
  • 222130Z AUTO 26003KT 210V300 9999 // BKN018 OVC026 21/18 Q1021
  • 222100Z AUTO 26004KT 230V320 9999 // FEW013 OVC021 21/18 Q1021
  • 222030Z AUTO 27006KT 240V320 9999 // BKN016 OVC025 21/18 Q1020
  • 222000Z AUTO 27007KT 230V300 9999 // OVC017 21/18 Q1020
  • 221930Z AUTO 28005KT 230V320 9000 // BKN016 OVC021 21/18 Q1020

Prévision TAF périmée.
Pas de NOTAMs connus pour ce terrain.



MET'MAP, la Météo Aéronautique d'un coup d'oeil ! - Copyright ORBIFLY Décembre 2007 - Disclaimer

ORBIFLY MET'MAP TEAM :

Programmation & Développement : Alexandra Zaïnal
Conception & Développement : Baudouin d'Aumeries
Co-Programmation & Développement : Marc-Olivier Méhu
Soutien technique & logistique : Manuel Goepfert

Contact : metmap@orbifly.com




SOURCES & CREDITS :

   NOAA